createdAt,value
2016-08-31T00:00:02.556Z,1012.57
2016-08-31T00:01:02.532Z,1012.61
2016-08-31T00:02:02.510Z,1012.59
2016-08-31T00:03:02.488Z,1012.6
2016-08-31T00:04:02.465Z,1012.56
2016-08-31T00:05:02.442Z,1012.58
2016-08-31T00:06:02.420Z,1012.59
2016-08-31T00:07:02.399Z,1012.54
2016-08-31T00:08:02.375Z,1012.57
2016-08-31T00:09:02.353Z,1012.54
2016-08-31T00:10:02.331Z,1012.59
2016-08-31T00:11:02.309Z,1012.56
2016-08-31T00:12:02.285Z,1012.55
2016-08-31T00:13:02.262Z,1012.52
2016-08-31T00:14:02.241Z,1012.54
2016-08-31T00:15:02.219Z,1012.54
2016-08-31T00:16:02.195Z,1012.48
2016-08-31T00:17:02.174Z,1012.52
2016-08-31T00:18:02.150Z,1012.51
2016-08-31T00:19:02.128Z,1012.57
2016-08-31T00:20:02.106Z,1012.5
2016-08-31T00:21:02.083Z,1012.51
2016-08-31T00:22:02.061Z,1012.51
2016-08-31T00:23:02.037Z,1012.51
2016-08-31T00:24:02.014Z,1012.49
2016-08-31T00:25:01.995Z,1012.5
2016-08-31T00:26:01.970Z,1012.52
2016-08-31T00:27:01.948Z,1012.53
2016-08-31T00:28:01.925Z,1012.51
2016-08-31T00:29:01.903Z,1012.5
2016-08-31T00:30:01.880Z,1012.49
2016-08-31T00:31:01.856Z,1012.48
2016-08-31T00:32:01.835Z,1012.49
2016-08-31T00:33:01.811Z,1012.46
2016-08-31T00:34:01.789Z,1012.48
2016-08-31T00:35:01.767Z,1012.46
2016-08-31T00:36:01.744Z,1012.46
2016-08-31T00:37:01.722Z,1012.47
2016-08-31T00:38:01.700Z,1012.41
2016-08-31T00:39:01.677Z,1012.41
2016-08-31T00:40:01.654Z,1012.4
2016-08-31T00:41:01.630Z,1012.37
2016-08-31T00:42:01.607Z,1012.43
2016-08-31T00:43:01.586Z,1012.37
2016-08-31T00:44:01.562Z,1012.36
2016-08-31T00:45:01.539Z,1012.35
2016-08-31T00:46:01.516Z,1012.4
2016-08-31T00:47:01.493Z,1012.4
2016-08-31T00:48:01.472Z,1012.4
2016-08-31T00:49:01.448Z,1012.37
2016-08-31T00:50:01.425Z,1012.33
2016-08-31T00:51:01.405Z,1012.35
2016-08-31T00:52:01.378Z,1012.37
2016-08-31T00:53:01.356Z,1012.32
2016-08-31T00:54:01.333Z,1012.32
2016-08-31T00:55:01.311Z,1012.3
2016-08-31T00:56:01.288Z,1012.28
2016-08-31T00:57:01.265Z,1012.3
2016-08-31T00:58:01.241Z,1012.28
2016-08-31T00:59:01.219Z,1012.27
2016-08-31T01:00:01.195Z,1012.26
2016-08-31T01:01:01.173Z,1012.24
2016-08-31T01:02:01.151Z,1012.25
2016-08-31T01:03:01.127Z,1012.22
2016-08-31T01:04:01.154Z,1012.18
2016-08-31T01:05:01.083Z,1012.19
2016-08-31T01:06:01.058Z,1012.21
2016-08-31T01:07:01.034Z,1012.2
2016-08-31T01:08:01.011Z,1012.19
2016-08-31T01:09:00.989Z,1012.19
2016-08-31T01:10:00.966Z,1012.22
2016-08-31T01:11:00.942Z,1012.17
2016-08-31T01:12:00.920Z,1012.17
2016-08-31T01:13:00.896Z,1012.14
2016-08-31T01:14:00.873Z,1012.16
2016-08-31T01:15:00.850Z,1012.13
2016-08-31T01:16:00.827Z,1012.08
2016-08-31T01:17:00.804Z,1012.1
2016-08-31T01:18:00.780Z,1012.07
2016-08-31T01:19:00.758Z,1012.08
2016-08-31T01:20:00.736Z,1012.06
2016-08-31T01:21:00.712Z,1012.08
2016-08-31T01:22:00.690Z,1012.1
2016-08-31T01:23:00.667Z,1012.09
2016-08-31T01:24:00.644Z,1012.1
2016-08-31T01:25:00.620Z,1012.05
2016-08-31T01:26:00.597Z,1012.08
2016-08-31T01:27:00.574Z,1012.06
2016-08-31T01:28:00.551Z,1012.04
2016-08-31T01:29:00.527Z,1012
2016-08-31T01:30:00.505Z,1012.01
2016-08-31T01:31:00.481Z,1011.96
2016-08-31T01:32:00.457Z,1011.98
2016-08-31T01:33:00.434Z,1011.91
2016-08-31T01:34:00.411Z,1011.92
2016-08-31T01:35:00.387Z,1011.93
2016-08-31T01:36:00.364Z,1011.93
2016-08-31T01:37:00.342Z,1011.94
2016-08-31T01:38:00.318Z,1011.98
2016-08-31T01:39:00.295Z,1011.93
2016-08-31T01:40:00.271Z,1011.96
2016-08-31T01:41:00.247Z,1011.93
2016-08-31T01:42:00.224Z,1011.95
2016-08-31T01:43:00.200Z,1011.96
2016-08-31T01:44:00.177Z,1011.96
2016-08-31T01:45:00.154Z,1011.95
2016-08-31T01:46:00.131Z,1011.95
2016-08-31T01:47:00.107Z,1011.97
2016-08-31T01:48:00.091Z,1011.95
2016-08-31T01:49:00.068Z,1011.94
2016-08-31T01:50:00.037Z,1011.96
2016-08-31T01:51:00.013Z,1011.93
2016-08-31T01:51:59.989Z,1011.94
2016-08-31T01:52:59.966Z,1011.95
2016-08-31T01:53:59.941Z,1011.89
2016-08-31T01:54:59.918Z,1011.88
2016-08-31T01:55:59.896Z,1011.87
2016-08-31T01:56:59.872Z,1011.83
2016-08-31T01:57:59.848Z,1011.82
2016-08-31T01:58:59.831Z,1011.81
2016-08-31T01:59:59.801Z,1011.79
2016-08-31T02:00:59.778Z,1011.78
2016-08-31T02:01:59.753Z,1011.77
2016-08-31T02:02:59.729Z,1011.77
2016-08-31T02:03:59.707Z,1011.78
2016-08-31T02:04:59.683Z,1011.8
2016-08-31T02:05:59.659Z,1011.81
2016-08-31T02:06:59.636Z,1011.76
2016-08-31T02:07:59.612Z,1011.81
2016-08-31T02:08:59.589Z,1011.83
2016-08-31T02:09:59.565Z,1011.81
2016-08-31T02:10:59.541Z,1011.78
2016-08-31T02:11:59.518Z,1011.77
2016-08-31T02:12:59.494Z,1011.8
2016-08-31T02:13:59.471Z,1011.77
2016-08-31T02:14:59.446Z,1011.81
2016-08-31T02:15:59.422Z,1011.81
2016-08-31T02:16:59.399Z,1011.81
2016-08-31T02:17:59.375Z,1011.79
2016-08-31T02:18:59.351Z,1011.79
2016-08-31T02:19:59.328Z,1011.8
2016-08-31T02:20:59.304Z,1011.77
2016-08-31T02:21:59.280Z,1011.77
2016-08-31T02:22:59.257Z,1011.78
2016-08-31T02:23:59.232Z,1011.72
2016-08-31T02:24:59.209Z,1011.75
2016-08-31T02:25:59.185Z,1011.78
2016-08-31T02:26:59.160Z,1011.74
2016-08-31T02:27:59.138Z,1011.72
2016-08-31T02:28:59.114Z,1011.71
2016-08-31T02:29:59.090Z,1011.72
2016-08-31T02:30:59.065Z,1011.75
2016-08-31T02:31:59.042Z,1011.73
2016-08-31T02:32:59.018Z,1011.77
2016-08-31T02:33:58.995Z,1011.73
2016-08-31T02:34:58.970Z,1011.69
2016-08-31T02:35:58.946Z,1011.67
2016-08-31T02:36:58.922Z,1011.67
2016-08-31T02:37:58.898Z,1011.65
2016-08-31T02:38:58.873Z,1011.62
2016-08-31T02:39:58.850Z,1011.65
2016-08-31T02:40:58.827Z,1011.64
2016-08-31T02:41:58.803Z,1011.6
2016-08-31T02:42:58.779Z,1011.59
2016-08-31T02:43:58.761Z,1011.6
2016-08-31T02:44:58.730Z,1011.58
2016-08-31T02:45:58.707Z,1011.58
2016-08-31T02:46:58.683Z,1011.6
2016-08-31T02:47:58.658Z,1011.56
2016-08-31T02:48:58.634Z,1011.55
2016-08-31T02:49:58.610Z,1011.5
2016-08-31T02:50:58.587Z,1011.53
2016-08-31T02:51:58.563Z,1011.52
2016-08-31T02:52:58.538Z,1011.49
2016-08-31T02:53:58.514Z,1011.51
2016-08-31T02:54:58.490Z,1011.47
2016-08-31T02:55:58.466Z,1011.49
2016-08-31T02:56:58.443Z,1011.5
2016-08-31T02:57:58.419Z,1011.48
2016-08-31T02:58:58.395Z,1011.48
2016-08-31T02:59:58.371Z,1011.49
2016-08-31T03:00:58.346Z,1011.44
2016-08-31T03:01:58.323Z,1011.4
2016-08-31T03:02:58.299Z,1011.42
2016-08-31T03:03:58.273Z,1011.4
2016-08-31T03:04:58.250Z,1011.38
2016-08-31T03:05:58.226Z,1011.4
2016-08-31T03:06:58.201Z,1011.37
2016-08-31T03:07:58.177Z,1011.36
2016-08-31T03:08:58.153Z,1011.39
2016-08-31T03:09:58.137Z,1011.38
2016-08-31T03:10:58.105Z,1011.37
2016-08-31T03:11:58.081Z,1011.33
2016-08-31T03:12:58.058Z,1011.34
2016-08-31T03:13:58.040Z,1011.34
2016-08-31T03:14:58.008Z,1011.33
2016-08-31T03:15:57.985Z,1011.29
2016-08-31T03:16:57.961Z,1011.3
2016-08-31T03:17:57.941Z,1011.25
2016-08-31T03:18:57.912Z,1011.26
2016-08-31T03:19:57.888Z,1011.24
2016-08-31T03:20:57.864Z,1011.24
2016-08-31T03:21:57.839Z,1011.25
2016-08-31T03:22:57.817Z,1011.23
2016-08-31T03:23:57.792Z,1011.22
2016-08-31T03:24:57.769Z,1011.2
2016-08-31T03:25:57.743Z,1011.23
2016-08-31T03:26:57.719Z,1011.3
2016-08-31T03:27:57.695Z,1011.25
2016-08-31T03:28:57.670Z,1011.26
2016-08-31T03:29:57.646Z,1011.28
2016-08-31T03:30:57.621Z,1011.26
2016-08-31T03:31:57.599Z,1011.27
2016-08-31T03:32:57.573Z,1011.25
2016-08-31T03:33:57.549Z,1011.22
2016-08-31T03:34:57.524Z,1011.17
2016-08-31T03:35:57.501Z,1011.22
2016-08-31T03:36:57.476Z,1011.24
2016-08-31T03:37:57.451Z,1011.2
2016-08-31T03:38:57.428Z,1011.22
2016-08-31T03:39:57.403Z,1011.25
2016-08-31T03:40:57.378Z,1011.25
2016-08-31T03:41:57.355Z,1011.24
2016-08-31T03:42:57.330Z,1011.22
2016-08-31T03:43:57.306Z,1011.22
2016-08-31T03:44:57.282Z,1011.19
2016-08-31T03:45:57.258Z,1011.16
2016-08-31T03:46:57.234Z,1011.15
2016-08-31T03:47:57.208Z,1011.16
2016-08-31T03:48:57.184Z,1011.19
2016-08-31T03:49:57.160Z,1011.18
2016-08-31T03:50:57.135Z,1011.18
2016-08-31T03:51:57.111Z,1011.17
2016-08-31T03:52:57.087Z,1011.17
2016-08-31T03:53:57.064Z,1011.17
2016-08-31T03:54:57.038Z,1011.15
2016-08-31T03:55:57.015Z,1011.17
2016-08-31T03:56:56.990Z,1011.14
2016-08-31T03:57:56.966Z,1011.16
2016-08-31T03:58:56.941Z,1011.13
2016-08-31T03:59:56.917Z,1011.16
2016-08-31T04:00:56.892Z,1011.11
2016-08-31T04:01:56.868Z,1011.17
2016-08-31T04:02:56.844Z,1011.16
2016-08-31T04:03:56.819Z,1011.17
2016-08-31T04:04:56.795Z,1011.15
2016-08-31T04:05:56.770Z,1011.14
2016-08-31T04:06:56.746Z,1011.16
2016-08-31T04:07:56.723Z,1011.17
2016-08-31T04:08:56.698Z,1011.12
2016-08-31T04:09:56.674Z,1011.14
2016-08-31T04:10:56.649Z,1011.17
2016-08-31T04:11:56.625Z,1011.16
2016-08-31T04:12:56.600Z,1011.19
2016-08-31T04:13:56.585Z,1011.15
2016-08-31T04:14:56.551Z,1011.16
2016-08-31T04:15:56.527Z,1011.18
2016-08-31T04:16:56.503Z,1011.14
2016-08-31T04:17:56.478Z,1011.12
2016-08-31T04:18:56.455Z,1011.13
2016-08-31T04:19:56.429Z,1011.15
2016-08-31T04:20:56.404Z,1011.14
2016-08-31T04:21:56.381Z,1011.17
2016-08-31T04:22:56.357Z,1011.18
2016-08-31T04:23:56.332Z,1011.16
2016-08-31T04:24:56.308Z,1011.18
2016-08-31T04:25:56.284Z,1011.2
2016-08-31T04:26:56.259Z,1011.16
2016-08-31T04:27:56.234Z,1011.19
2016-08-31T04:28:56.210Z,1011.15
2016-08-31T04:29:56.186Z,1011.19
2016-08-31T04:30:56.162Z,1011.18
2016-08-31T04:31:56.143Z,1011.15
2016-08-31T04:32:56.114Z,1011.16
2016-08-31T04:33:56.090Z,1011.14
2016-08-31T04:34:56.064Z,1011.12
2016-08-31T04:35:56.040Z,1011.08
2016-08-31T04:36:56.016Z,1011.07
2016-08-31T04:37:55.992Z,1011.04
2016-08-31T04:38:55.967Z,1011.01
2016-08-31T04:39:55.943Z,1011.04
2016-08-31T04:40:55.924Z,1011.07
2016-08-31T04:41:55.894Z,1011.09
2016-08-31T04:42:55.870Z,1011.09
2016-08-31T04:43:55.851Z,1011.06
2016-08-31T04:44:55.822Z,1011.02
2016-08-31T04:45:55.797Z,1010.99
2016-08-31T04:46:55.772Z,1011.01
2016-08-31T04:47:55.748Z,1011.02
2016-08-31T04:48:55.725Z,1011.01
2016-08-31T04:49:55.705Z,1011
2016-08-31T04:50:55.676Z,1011.03
2016-08-31T04:51:55.652Z,1011.01
2016-08-31T04:52:55.626Z,1011.02
2016-08-31T04:53:55.603Z,1011.05
2016-08-31T04:54:55.579Z,1011.12
2016-08-31T04:55:55.555Z,1011.09
2016-08-31T04:56:55.530Z,1011.12
2016-08-31T04:57:55.506Z,1011.1
2016-08-31T04:58:55.482Z,1011.11
2016-08-31T04:59:55.458Z,1011.07
2016-08-31T05:00:55.434Z,1011.02
2016-08-31T05:01:55.409Z,1011.03
2016-08-31T05:02:55.385Z,1011.02
2016-08-31T05:03:55.361Z,1011.01
2016-08-31T05:04:55.337Z,1011.04
2016-08-31T05:05:55.313Z,1010.97
2016-08-31T05:06:55.289Z,1010.99
2016-08-31T05:07:55.264Z,1011
2016-08-31T05:08:55.241Z,1010.97
2016-08-31T05:09:55.215Z,1010.96
2016-08-31T05:10:55.193Z,1010.98
2016-08-31T05:11:55.168Z,1010.98
2016-08-31T05:12:55.143Z,1010.96
2016-08-31T05:13:55.121Z,1010.97
2016-08-31T05:14:55.096Z,1010.95
2016-08-31T05:15:55.071Z,1010.99
2016-08-31T05:16:55.048Z,1010.94
2016-08-31T05:17:55.025Z,1010.96
2016-08-31T05:18:54.999Z,1010.94
2016-08-31T05:19:54.976Z,1010.91
2016-08-31T05:20:54.952Z,1010.92
2016-08-31T05:21:54.928Z,1010.88
2016-08-31T05:22:54.905Z,1010.91
2016-08-31T05:23:54.880Z,1010.89
2016-08-31T05:24:54.856Z,1010.86
2016-08-31T05:25:54.832Z,1010.85
2016-08-31T05:26:54.808Z,1010.92
2016-08-31T05:27:54.785Z,1010.91
2016-08-31T05:28:54.762Z,1010.87
2016-08-31T05:29:54.746Z,1010.89
2016-08-31T05:30:54.713Z,1010.86
2016-08-31T05:31:54.691Z,1010.88
2016-08-31T05:32:54.667Z,1010.83
2016-08-31T05:33:54.642Z,1010.86
2016-08-31T05:34:54.620Z,1010.86
2016-08-31T05:35:54.595Z,1010.86
2016-08-31T05:36:54.571Z,1010.85
2016-08-31T05:37:54.547Z,1010.88
2016-08-31T05:38:54.524Z,1010.88
2016-08-31T05:39:54.501Z,1010.9
2016-08-31T05:40:54.477Z,1010.9
2016-08-31T05:41:54.453Z,1010.83
2016-08-31T05:42:54.430Z,1010.84
2016-08-31T05:43:54.406Z,1010.84
2016-08-31T05:44:54.381Z,1010.81
2016-08-31T05:45:54.359Z,1010.81
2016-08-31T05:46:54.336Z,1010.81
2016-08-31T05:47:54.311Z,1010.83
2016-08-31T05:48:54.288Z,1010.85
2016-08-31T05:49:54.265Z,1010.89
2016-08-31T05:50:54.242Z,1010.89
2016-08-31T05:51:54.218Z,1010.87
2016-08-31T05:52:54.194Z,1010.84
2016-08-31T05:53:54.171Z,1010.88
2016-08-31T05:54:54.148Z,1010.85
2016-08-31T05:55:54.123Z,1010.83
2016-08-31T05:56:54.101Z,1010.87
2016-08-31T05:57:54.078Z,1010.86
2016-08-31T05:58:54.053Z,1010.89
2016-08-31T05:59:54.031Z,1010.85
2016-08-31T06:00:54.009Z,1010.81
2016-08-31T06:01:53.985Z,1010.86
2016-08-31T06:02:53.960Z,1010.84
2016-08-31T06:03:53.938Z,1010.84
2016-08-31T06:04:53.915Z,1010.85
2016-08-31T06:05:53.917Z,1010.89
2016-08-31T06:06:53.869Z,1010.9
2016-08-31T06:07:53.852Z,1010.85
2016-08-31T06:08:53.822Z,1010.85
2016-08-31T06:09:53.800Z,1010.83
2016-08-31T06:10:53.776Z,1010.8
2016-08-31T06:11:53.753Z,1010.83
2016-08-31T06:12:53.730Z,1010.79
2016-08-31T06:13:53.707Z,1010.77
2016-08-31T06:14:53.688Z,1010.77
2016-08-31T06:15:53.662Z,1010.82
2016-08-31T06:16:53.639Z,1010.82
2016-08-31T06:17:53.616Z,1010.8
2016-08-31T06:18:53.593Z,1010.78
2016-08-31T06:19:53.572Z,1010.8
2016-08-31T06:20:53.548Z,1010.82
2016-08-31T06:21:53.534Z,1010.79
2016-08-31T06:22:53.504Z,1010.77
2016-08-31T06:23:53.481Z,1010.75
2016-08-31T06:24:53.457Z,1010.79
2016-08-31T06:25:53.435Z,1010.81
2016-08-31T06:26:53.418Z,1010.79
2016-08-31T06:27:53.390Z,1010.79
2016-08-31T06:28:53.368Z,1010.78
2016-08-31T06:29:53.345Z,1010.76
2016-08-31T06:30:53.322Z,1010.78
2016-08-31T06:31:53.299Z,1010.78
2016-08-31T06:32:53.277Z,1010.76
2016-08-31T06:33:53.255Z,1010.81
2016-08-31T06:34:53.233Z,1010.8
2016-08-31T06:35:53.210Z,1010.78
2016-08-31T06:36:53.189Z,1010.76
2016-08-31T06:37:53.167Z,1010.77
2016-08-31T06:38:53.144Z,1010.79
2016-08-31T06:39:53.126Z,1010.79
2016-08-31T06:40:53.102Z,1010.75
2016-08-31T06:41:53.080Z,1010.77
2016-08-31T06:42:53.058Z,1010.75
2016-08-31T06:43:53.036Z,1010.78
2016-08-31T06:44:53.014Z,1010.82
2016-08-31T06:45:52.993Z,1010.8
2016-08-31T06:46:52.985Z,1010.85
2016-08-31T06:47:52.949Z,1010.8
2016-08-31T06:48:52.928Z,1010.85
2016-08-31T06:49:52.906Z,1010.84
2016-08-31T06:50:52.884Z,1010.86
2016-08-31T06:51:52.863Z,1010.83
2016-08-31T06:52:52.842Z,1010.83
2016-08-31T06:53:52.819Z,1010.83
2016-08-31T06:54:52.798Z,1010.8
2016-08-31T06:55:52.777Z,1010.76
2016-08-31T06:56:52.756Z,1010.79
2016-08-31T06:57:52.734Z,1010.78
2016-08-31T06:58:52.712Z,1010.77
2016-08-31T06:59:52.692Z,1010.75
2016-08-31T07:00:52.675Z,1010.76
2016-08-31T07:01:52.649Z,1010.76
2016-08-31T07:02:52.628Z,1010.75
2016-08-31T07:03:52.607Z,1010.72
2016-08-31T07:04:52.584Z,1010.75
2016-08-31T07:05:52.565Z,1010.7
2016-08-31T07:06:52.545Z,1010.71
2016-08-31T07:07:52.523Z,1010.73
2016-08-31T07:08:52.502Z,1010.7
2016-08-31T07:09:52.486Z,1010.71
2016-08-31T07:10:52.461Z,1010.7
2016-08-31T07:11:52.439Z,1010.68
2016-08-31T07:12:52.419Z,1010.66
2016-08-31T07:13:52.400Z,1010.69
2016-08-31T07:14:52.381Z,1010.69
2016-08-31T07:15:52.361Z,1010.68
2016-08-31T07:16:52.343Z,1010.7
2016-08-31T07:17:52.323Z,1010.69
2016-08-31T07:18:52.304Z,1010.67
2016-08-31T07:19:52.287Z,1010.68
2016-08-31T07:20:52.269Z,1010.65
2016-08-31T07:21:52.252Z,1010.65
2016-08-31T07:22:52.233Z,1010.66
2016-08-31T07:23:52.223Z,1010.68
2016-08-31T07:24:52.202Z,1010.62
2016-08-31T07:25:52.182Z,1010.64
2016-08-31T07:26:52.165Z,1010.61
2016-08-31T07:27:52.149Z,1010.67
2016-08-31T07:28:52.133Z,1010.67
2016-08-31T07:29:52.116Z,1010.66
2016-08-31T07:30:52.100Z,1010.7
2016-08-31T07:31:52.085Z,1010.69
2016-08-31T07:32:52.066Z,1010.68
2016-08-31T07:33:52.050Z,1010.66
2016-08-31T07:34:52.034Z,1010.65
2016-08-31T07:35:52.017Z,1010.65
2016-08-31T07:36:52.001Z,1010.64
2016-08-31T07:37:51.985Z,1010.65
2016-08-31T07:38:51.969Z,1010.63
2016-08-31T07:39:51.953Z,1010.63
2016-08-31T07:40:51.937Z,1010.61
2016-08-31T07:41:51.921Z,1010.56
2016-08-31T07:42:51.905Z,1010.62
2016-08-31T07:43:51.890Z,1010.6
2016-08-31T07:44:51.873Z,1010.6
2016-08-31T07:45:51.857Z,1010.6
2016-08-31T07:46:51.841Z,1010.6
2016-08-31T07:47:51.826Z,1010.6
2016-08-31T07:48:51.809Z,1010.56
2016-08-31T07:49:51.791Z,1010.56
2016-08-31T07:50:51.777Z,1010.6
2016-08-31T07:51:51.759Z,1010.57
2016-08-31T07:52:51.742Z,1010.57
2016-08-31T07:53:51.726Z,1010.6
2016-08-31T07:54:51.709Z,1010.56
2016-08-31T07:55:51.691Z,1010.59
2016-08-31T07:56:51.676Z,1010.55
2016-08-31T07:57:51.659Z,1010.54
2016-08-31T07:58:51.641Z,1010.51
2016-08-31T07:59:51.625Z,1010.49
2016-08-31T08:00:51.607Z,1010.48
2016-08-31T08:01:51.591Z,1010.47
2016-08-31T08:02:51.611Z,1010.47
2016-08-31T08:03:51.557Z,1010.47
2016-08-31T08:04:51.541Z,1010.46
2016-08-31T08:05:51.530Z,1010.49
2016-08-31T08:06:51.505Z,1010.47
2016-08-31T08:07:51.489Z,1010.44
2016-08-31T08:08:51.475Z,1010.47
2016-08-31T08:09:51.463Z,1010.48
2016-08-31T08:10:51.437Z,1010.42
2016-08-31T08:11:51.420Z,1010.42
2016-08-31T08:12:51.404Z,1010.44
2016-08-31T08:13:51.386Z,1010.44
2016-08-31T08:14:51.369Z,1010.49
2016-08-31T08:15:51.352Z,1010.45
2016-08-31T08:16:51.335Z,1010.47
2016-08-31T08:17:51.317Z,1010.49
2016-08-31T08:18:51.301Z,1010.47
2016-08-31T08:19:51.284Z,1010.46
2016-08-31T08:20:51.268Z,1010.43
2016-08-31T08:21:51.251Z,1010.45
2016-08-31T08:22:51.232Z,1010.41
2016-08-31T08:23:51.282Z,1010.39
2016-08-31T08:24:51.199Z,1010.43
2016-08-31T08:25:51.300Z,1010.43
2016-08-31T08:26:51.164Z,1010.38
2016-08-31T08:27:51.148Z,1010.41
2016-08-31T08:28:51.131Z,1010.48
2016-08-31T08:29:51.113Z,1010.47
2016-08-31T08:30:51.098Z,1010.45
2016-08-31T08:31:51.081Z,1010.47
2016-08-31T08:32:51.064Z,1010.43
2016-08-31T08:33:51.047Z,1010.46
2016-08-31T08:34:51.029Z,1010.44
2016-08-31T08:35:51.014Z,1010.44
2016-08-31T08:36:50.996Z,1010.42
2016-08-31T08:37:50.980Z,1010.42
2016-08-31T08:38:50.963Z,1010.42
2016-08-31T08:39:50.945Z,1010.43
2016-08-31T08:40:50.929Z,1010.44
2016-08-31T08:41:50.913Z,1010.44
2016-08-31T08:42:50.895Z,1010.46
2016-08-31T08:43:50.954Z,1010.47
2016-08-31T08:44:50.863Z,1010.48
2016-08-31T08:45:50.846Z,1010.49
2016-08-31T08:46:50.829Z,1010.48
2016-08-31T08:47:50.812Z,1010.48
2016-08-31T08:48:50.797Z,1010.46
2016-08-31T08:49:50.780Z,1010.47
2016-08-31T08:50:50.763Z,1010.45
2016-08-31T08:51:50.746Z,1010.44
2016-08-31T08:52:50.730Z,1010.44
2016-08-31T08:53:50.714Z,1010.41
2016-08-31T08:54:50.696Z,1010.41
2016-08-31T08:55:50.681Z,1010.4
2016-08-31T08:56:50.664Z,1010.44
2016-08-31T08:57:50.646Z,1010.46
2016-08-31T08:58:50.631Z,1010.42
2016-08-31T08:59:50.615Z,1010.43
2016-08-31T09:00:50.599Z,1010.48
2016-08-31T09:01:50.582Z,1010.44
2016-08-31T09:02:50.566Z,1010.4
2016-08-31T09:03:50.550Z,1010.43
2016-08-31T09:04:50.534Z,1010.44
2016-08-31T09:05:50.518Z,1010.39
2016-08-31T09:06:50.510Z,1010.37
2016-08-31T09:07:50.486Z,1010.39
2016-08-31T09:08:50.469Z,1010.38
2016-08-31T09:09:50.452Z,1010.36
2016-08-31T09:10:50.437Z,1010.39
2016-08-31T09:11:50.421Z,1010.39
2016-08-31T09:12:50.405Z,1010.4
2016-08-31T09:13:50.388Z,1010.42
2016-08-31T09:14:50.372Z,1010.42
2016-08-31T09:15:50.357Z,1010.39
2016-08-31T09:16:50.341Z,1010.42
2016-08-31T09:17:50.326Z,1010.4
2016-08-31T09:18:50.310Z,1010.37
2016-08-31T09:19:50.293Z,1010.37
2016-08-31T09:20:50.278Z,1010.34
2016-08-31T09:21:50.263Z,1010.34
2016-08-31T09:22:50.247Z,1010.33
2016-08-31T09:23:50.230Z,1010.35
2016-08-31T09:24:50.215Z,1010.34
2016-08-31T09:25:50.200Z,1010.32
2016-08-31T09:26:50.183Z,1010.27
2016-08-31T09:27:50.268Z,1010.28
2016-08-31T09:28:50.153Z,1010.3
2016-08-31T09:29:50.137Z,1010.31
2016-08-31T09:30:50.121Z,1010.3
2016-08-31T09:31:50.106Z,1010.32
2016-08-31T09:32:50.090Z,1010.34
2016-08-31T09:33:50.080Z,1010.34
2016-08-31T09:34:50.059Z,1010.32
2016-08-31T09:35:50.043Z,1010.31
2016-08-31T09:36:50.029Z,1010.35
2016-08-31T09:37:50.012Z,1010.34
2016-08-31T09:38:49.998Z,1010.31
2016-08-31T09:39:49.982Z,1010.33
2016-08-31T09:40:49.971Z,1010.32
2016-08-31T09:41:49.951Z,1010.27
2016-08-31T09:42:49.936Z,1010.3
2016-08-31T09:43:49.921Z,1010.31
2016-08-31T09:44:49.906Z,1010.3
2016-08-31T09:45:49.891Z,1010.25
2016-08-31T09:46:49.875Z,1010.27
2016-08-31T09:47:49.860Z,1010.25
2016-08-31T09:48:49.844Z,1010.22
2016-08-31T09:49:49.829Z,1010.19
2016-08-31T09:50:49.869Z,1010.23
2016-08-31T09:51:49.799Z,1010.23
2016-08-31T09:52:49.784Z,1010.2
2016-08-31T09:53:49.769Z,1010.18
2016-08-31T09:54:49.754Z,1010.18
2016-08-31T09:55:49.739Z,1010.22
2016-08-31T09:56:49.723Z,1010.17
2016-08-31T09:57:49.709Z,1010.21
2016-08-31T09:58:49.694Z,1010.22
2016-08-31T09:59:49.677Z,1010.22
2016-08-31T10:00:49.663Z,1010.2
2016-08-31T10:01:49.647Z,1010.2
2016-08-31T10:02:49.634Z,1010.15
2016-08-31T10:03:49.618Z,1010.07
2016-08-31T10:04:49.604Z,1010.1
2016-08-31T10:05:49.589Z,1010.09
2016-08-31T10:06:49.574Z,1010.11
2016-08-31T10:07:49.559Z,1010.11
2016-08-31T10:08:49.544Z,1010.09
2016-08-31T10:09:49.534Z,1010.08
2016-08-31T10:10:49.514Z,1010
2016-08-31T10:11:49.500Z,1010.03
2016-08-31T10:12:49.487Z,1010.05
2016-08-31T10:13:49.472Z,1010.03
2016-08-31T10:14:49.456Z,1010.03
2016-08-31T10:15:49.442Z,1010.04
2016-08-31T10:16:49.427Z,1010.03
2016-08-31T10:17:49.413Z,1010.04
2016-08-31T10:18:49.399Z,1010.04
2016-08-31T10:19:49.384Z,1010
2016-08-31T10:20:49.370Z,1010.04
2016-08-31T10:21:49.355Z,1010.05
2016-08-31T10:22:49.340Z,1010.05
2016-08-31T10:23:49.328Z,1010.04
2016-08-31T10:24:49.312Z,1010.07
2016-08-31T10:25:49.296Z,1010.03
2016-08-31T10:26:49.283Z,1009.98
2016-08-31T10:27:49.269Z,1009.98
2016-08-31T10:28:49.255Z,1009.93
2016-08-31T10:29:49.241Z,1009.97
2016-08-31T10:30:49.232Z,1009.98
2016-08-31T10:31:49.213Z,1009.97
2016-08-31T10:32:49.198Z,1009.96
2016-08-31T10:33:49.185Z,1009.96
2016-08-31T10:34:49.171Z,1009.97
2016-08-31T10:35:49.158Z,1009.91
2016-08-31T10:36:49.143Z,1009.92
2016-08-31T10:37:49.129Z,1009.92
2016-08-31T10:38:49.120Z,1009.92
2016-08-31T10:39:49.102Z,1009.91
2016-08-31T10:40:49.088Z,1009.89
2016-08-31T10:41:49.073Z,1009.84
2016-08-31T10:42:49.067Z,1009.83
2016-08-31T10:43:49.047Z,1009.83
2016-08-31T10:44:49.193Z,1009.83
2016-08-31T10:45:49.018Z,1009.8
2016-08-31T10:46:49.006Z,1009.81
2016-08-31T10:47:48.990Z,1009.76
2016-08-31T10:48:48.977Z,1009.74
2016-08-31T10:49:48.983Z,1009.75
2016-08-31T10:50:48.951Z,1009.68
2016-08-31T10:51:49.062Z,1009.65
2016-08-31T10:52:48.924Z,1009.68
2016-08-31T10:53:48.910Z,1009.69
2016-08-31T10:54:48.896Z,1009.68
2016-08-31T10:55:48.882Z,1009.66
2016-08-31T10:56:48.870Z,1009.66
2016-08-31T10:57:48.856Z,1009.66
2016-08-31T10:58:48.841Z,1009.62
2016-08-31T10:59:48.828Z,1009.67
2016-08-31T11:00:48.815Z,1009.6
2016-08-31T11:01:48.803Z,1009.63
2016-08-31T11:02:48.798Z,1009.62
2016-08-31T11:03:48.773Z,1009.61
2016-08-31T11:04:48.760Z,1009.63
2016-08-31T11:05:48.746Z,1009.59
2016-08-31T11:06:48.733Z,1009.61
2016-08-31T11:07:48.719Z,1009.64
2016-08-31T11:08:48.706Z,1009.59
2016-08-31T11:09:48.693Z,1009.6
2016-08-31T11:10:48.678Z,1009.64
2016-08-31T11:11:48.665Z,1009.6
2016-08-31T11:12:48.650Z,1009.63
2016-08-31T11:13:48.637Z,1009.53
2016-08-31T11:14:48.624Z,1009.64
2016-08-31T11:15:48.611Z,1009.59
2016-08-31T11:16:48.597Z,1009.61
2016-08-31T11:17:48.584Z,1009.57
2016-08-31T11:18:48.570Z,1009.66
2016-08-31T11:19:48.557Z,1009.56
2016-08-31T11:20:48.543Z,1009.61
2016-08-31T11:21:48.530Z,1009.63
2016-08-31T11:22:48.517Z,1009.64
2016-08-31T11:23:48.502Z,1009.6
2016-08-31T11:24:48.489Z,1009.56
2016-08-31T11:25:48.475Z,1009.6
2016-08-31T11:26:48.463Z,1009.59
2016-08-31T11:27:48.448Z,1009.59
2016-08-31T11:28:48.435Z,1009.57
2016-08-31T11:29:48.425Z,1009.61
2016-08-31T11:30:48.424Z,1009.66
2016-08-31T11:31:48.398Z,1009.61
2016-08-31T11:32:48.382Z,1009.65
2016-08-31T11:33:48.368Z,1009.63
2016-08-31T11:34:48.354Z,1009.62
2016-08-31T11:35:48.341Z,1009.6
2016-08-31T11:36:48.332Z,1009.61
2016-08-31T11:37:48.315Z,1009.65
2016-08-31T11:38:48.301Z,1009.63
2016-08-31T11:39:48.288Z,1009.63
2016-08-31T11:40:48.274Z,1009.6
2016-08-31T11:41:48.261Z,1009.62
2016-08-31T11:42:48.248Z,1009.55
2016-08-31T11:43:48.235Z,1009.59
2016-08-31T11:44:48.221Z,1009.59
2016-08-31T11:45:48.207Z,1009.65
2016-08-31T11:46:48.195Z,1009.58
2016-08-31T11:47:48.181Z,1009.56
2016-08-31T11:48:48.168Z,1009.55
2016-08-31T11:49:48.156Z,1009.53
2016-08-31T11:50:48.141Z,1009.52
2016-08-31T11:51:48.128Z,1009.53
2016-08-31T11:52:48.116Z,1009.49
2016-08-31T11:53:48.101Z,1009.48
2016-08-31T11:54:48.088Z,1009.43
2016-08-31T11:55:48.076Z,1009.43
2016-08-31T11:56:48.063Z,1009.44
2016-08-31T11:57:48.048Z,1009.46
2016-08-31T11:58:48.036Z,1009.43
2016-08-31T11:59:48.024Z,1009.41
2016-08-31T12:00:48.010Z,1009.42
2016-08-31T12:01:47.997Z,1009.39
2016-08-31T12:02:47.985Z,1009.36
2016-08-31T12:03:47.972Z,1009.43
2016-08-31T12:04:47.958Z,1009.4
2016-08-31T12:05:47.946Z,1009.38
2016-08-31T12:06:47.932Z,1009.39
2016-08-31T12:07:47.919Z,1009.36